createdAt,value
2019-05-02T00:01:39.806Z,100182.52
2019-05-02T00:04:06.987Z,100182.36
2019-05-02T00:06:37.973Z,100181.89
2019-05-02T00:09:09.169Z,100180.48
2019-05-02T00:11:36.350Z,100180.42
2019-05-02T00:14:05.459Z,100175.95
2019-05-02T00:16:32.766Z,100175.89
2019-05-02T00:18:59.920Z,100181.98
2019-05-02T00:21:27.737Z,100173.94
2019-05-02T00:23:59.183Z,100176.23
2019-05-02T00:26:24.841Z,100178.41
2019-05-02T00:28:52.917Z,100180.17
2019-05-02T00:31:20.927Z,100180.63
2019-05-02T00:33:48.152Z,100183.26
2019-05-02T00:36:15.362Z,100181.77
2019-05-02T00:38:42.551Z,100179.58
2019-05-02T00:41:09.696Z,100181.20
2019-05-02T00:43:36.915Z,100177.02
2019-05-02T00:46:04.117Z,100181.55
2019-05-02T00:48:46.222Z,100175.98
2019-05-02T00:51:13.534Z,100173.05
2019-05-02T00:53:44.456Z,100173.13
2019-05-02T00:56:10.381Z,100173.56
2019-05-02T00:58:37.691Z,100180.41
2019-05-02T01:01:33.037Z,100170.09
2019-05-02T01:04:04.533Z,100174.34
2019-05-02T01:06:31.723Z,100180.06
2019-05-02T01:08:58.878Z,100169.86
2019-05-02T01:11:28.371Z,100164.94
2019-05-02T01:13:55.663Z,100165.34
2019-05-02T01:16:24.340Z,100168.20
2019-05-02T01:18:51.558Z,100166.08
2019-05-02T01:21:18.745Z,100168.02
2019-05-02T01:23:45.933Z,100161.20
2019-05-02T01:26:13.045Z,100162.52
2019-05-02T01:28:55.742Z,100164.39
2019-05-02T01:31:37.632Z,100165.13
2019-05-02T01:34:17.881Z,100157.06
2019-05-02T01:36:52.711Z,100159.17
2019-05-02T01:39:19.881Z,100160.72
2019-05-02T01:41:46.939Z,100161.41
2019-05-02T01:44:14.159Z,100166.88
2019-05-02T01:46:41.330Z,100164.52
2019-05-02T01:49:09.346Z,100159.59
2019-05-02T01:51:37.097Z,100158.20
2019-05-02T01:54:10.049Z,100159.91
2019-05-02T01:56:35.067Z,100153.30
2019-05-02T01:59:02.395Z,100150.75
2019-05-02T02:01:29.478Z,100150.83
2019-05-02T02:03:56.693Z,100147.73
2019-05-02T02:06:23.925Z,100150.02
2019-05-02T02:08:51.155Z,100150.70
2019-05-02T02:11:18.662Z,100147.77
2019-05-02T02:13:45.859Z,100146.73
2019-05-02T02:16:13.369Z,100147.62
2019-05-02T02:18:50.166Z,100136.52
2019-05-02T02:21:36.977Z,100147.78
2019-05-02T02:24:08.224Z,100145.42
2019-05-02T02:26:35.447Z,100140.70
2019-05-02T02:29:03.123Z,100146.23
2019-05-02T02:31:31.662Z,100145.41
2019-05-02T02:33:58.762Z,100137.13
2019-05-02T02:36:31.799Z,100139.00
2019-05-02T02:38:55.223Z,100142.80
2019-05-02T02:41:22.380Z,100144.42
2019-05-02T02:44:12.199Z,100143.09
2019-05-02T02:46:41.788Z,100142.78
2019-05-02T02:49:14.222Z,100142.44
2019-05-02T02:51:38.171Z,100139.41
2019-05-02T02:54:05.766Z,100135.70
2019-05-02T02:56:34.386Z,100135.86
2019-05-02T02:59:02.298Z,100127.63
2019-05-02T03:01:31.320Z,100124.52
2019-05-02T03:04:01.937Z,100127.84
2019-05-02T03:06:27.684Z,100126.14
2019-05-02T03:08:54.964Z,100127.46
2019-05-02T03:11:25.511Z,100125.22
2019-05-02T03:14:06.675Z,100123.84
2019-05-02T03:16:30.262Z,100125.26
2019-05-02T03:18:57.430Z,100128.69
2019-05-02T03:21:24.694Z,100126.38
2019-05-02T03:24:02.265Z,100128.63
2019-05-02T03:26:20.888Z,100129.86
2019-05-02T03:28:57.291Z,100125.60
2019-05-02T03:31:29.830Z,100122.62
2019-05-02T03:33:55.115Z,100124.20
2019-05-02T03:36:27.999Z,100124.20
2019-05-02T03:38:44.971Z,100123.27
2019-05-02T03:41:13.649Z,100119.13
2019-05-02T03:43:42.097Z,100122.37
2019-05-02T03:46:13.454Z,100122.95
2019-05-02T03:48:38.343Z,100121.31
2019-05-02T03:51:19.669Z,100121.45
2019-05-02T03:53:36.424Z,100123.00
2019-05-02T03:56:10.570Z,100125.27
2019-05-02T03:58:32.816Z,100120.34
2019-05-02T04:01:01.625Z,100121.08
2019-05-02T04:03:34.139Z,100120.84
2019-05-02T04:05:58.762Z,100123.97
2019-05-02T04:08:26.327Z,100121.48
2019-05-02T04:11:23.467Z,100120.63
2019-05-02T04:13:52.209Z,100124.23
2019-05-02T04:16:19.611Z,100127.68
2019-05-02T04:18:54.626Z,100126.58
2019-05-02T04:21:22.178Z,100126.31
2019-05-02T04:23:45.826Z,100132.02
2019-05-02T04:26:15.429Z,100132.48
2019-05-02T04:28:45.685Z,100135.55
2019-05-02T04:31:12.497Z,100136.41
2019-05-02T04:33:39.807Z,100142.31
2019-05-02T04:36:14.151Z,100135.28
2019-05-02T04:38:44.269Z,100138.91
2019-05-02T04:41:05.240Z,100137.02
2019-05-02T04:43:32.401Z,100129.85
2019-05-02T04:46:00.318Z,100130.97
2019-05-02T04:48:28.487Z,100130.22
2019-05-02T04:51:02.010Z,100125.86
2019-05-02T04:53:25.809Z,100131.72
2019-05-02T04:56:01.734Z,100122.64
2019-05-02T04:58:27.503Z,100125.51
2019-05-02T05:00:58.109Z,100128.39
2019-05-02T05:03:21.363Z,100126.03
2019-05-02T05:05:48.425Z,100125.59
2019-05-02T05:08:17.556Z,100128.80
2019-05-02T05:10:45.159Z,100139.63
2019-05-02T05:13:19.437Z,100136.02
2019-05-02T05:15:48.918Z,100135.53
2019-05-02T05:18:14.482Z,100139.25
2019-05-02T05:20:40.538Z,100129.16
2019-05-02T05:23:08.309Z,100131.28
2019-05-02T05:25:40.852Z,100125.34
2019-05-02T05:28:09.076Z,100127.23
2019-05-02T05:30:44.707Z,100121.02
2019-05-02T05:33:09.913Z,100120.54
2019-05-02T05:35:35.337Z,100118.30
2019-05-02T05:38:02.516Z,100124.84
2019-05-02T05:40:32.083Z,100123.67
2019-05-02T05:43:02.115Z,100129.95
2019-05-02T05:45:29.111Z,100126.16
2019-05-02T05:48:00.958Z,100121.23
2019-05-02T05:50:27.566Z,100124.16
2019-05-02T05:52:55.048Z,100126.17
2019-05-02T05:55:24.317Z,100125.72
2019-05-02T05:57:59.537Z,100126.09
2019-05-02T06:00:23.132Z,100127.25
2019-05-02T06:02:56.099Z,100127.83
2019-05-02T06:05:19.909Z,100126.71
2019-05-02T06:07:47.472Z,100122.45
2019-05-02T06:10:14.809Z,100125.86
2019-05-02T06:12:41.989Z,100127.02
2019-05-02T06:15:09.529Z,100121.72
2019-05-02T06:17:36.758Z,100119.59
2019-05-02T06:20:04.494Z,100122.84
2019-05-02T06:22:31.989Z,100121.47
2019-05-02T06:25:08.418Z,100128.37
2019-05-02T06:27:33.439Z,100127.16
2019-05-02T06:30:00.983Z,100129.47
2019-05-02T06:32:28.292Z,100130.39
2019-05-02T06:34:55.516Z,100132.37
2019-05-02T06:37:22.712Z,100133.29
2019-05-02T06:39:49.975Z,100125.66
2019-05-02T06:42:17.151Z,100129.20
2019-05-02T06:44:44.543Z,100132.73
2019-05-02T06:47:11.743Z,100131.98
2019-05-02T06:49:38.820Z,100126.06
2019-05-02T06:52:06.011Z,100131.06
2019-05-02T06:54:33.253Z,100127.34
2019-05-02T06:57:00.438Z,100128.55
2019-05-02T06:59:27.657Z,100128.34
2019-05-02T07:01:57.450Z,100125.24
2019-05-02T07:04:25.071Z,100123.94
2019-05-02T07:06:58.866Z,100119.74
2019-05-02T07:09:21.768Z,100122.95
2019-05-02T07:11:57.003Z,100125.57
2019-05-02T07:14:23.264Z,100122.13
2019-05-02T07:17:05.701Z,100121.98
2019-05-02T07:19:37.996Z,100121.43
2019-05-02T07:22:05.235Z,100116.80
2019-05-02T07:24:32.733Z,100112.12
2019-05-02T07:27:02.297Z,100118.81
2019-05-02T07:29:29.134Z,100118.98
2019-05-02T07:31:56.317Z,100119.13
2019-05-02T07:34:23.795Z,100119.56
2019-05-02T07:36:50.891Z,100114.77
2019-05-02T07:39:18.088Z,100122.42
2019-05-02T07:41:45.203Z,100122.19
2019-05-02T07:44:12.577Z,100120.61
2019-05-02T07:46:51.159Z,100124.75
2019-05-02T07:49:08.875Z,100127.02
2019-05-02T07:51:36.110Z,100127.02
2019-05-02T07:54:03.392Z,100119.26
2019-05-02T07:56:30.847Z,100119.79
2019-05-02T07:58:58.100Z,100124.31
2019-05-02T08:01:25.565Z,100120.52
2019-05-02T08:03:52.739Z,100116.56
2019-05-02T08:06:20.010Z,100116.11
2019-05-02T08:08:47.226Z,100113.92
2019-05-02T08:11:14.415Z,100112.09
2019-05-02T08:13:41.597Z,100110.03
2019-05-02T08:16:08.803Z,100114.43
2019-05-02T08:18:36.285Z,100114.30
2019-05-02T08:21:03.758Z,100114.84
2019-05-02T08:23:30.804Z,100116.11
2019-05-02T08:25:58.291Z,100112.02
2019-05-02T08:28:34.525Z,100119.88
2019-05-02T08:31:01.697Z,100114.78
2019-05-02T08:33:34.386Z,100113.95
2019-05-02T08:35:57.979Z,100119.17
2019-05-02T08:38:25.159Z,100109.47
2019-05-02T08:40:52.349Z,100114.92
2019-05-02T08:43:19.737Z,100114.87
2019-05-02T08:45:46.912Z,100111.80
2019-05-02T08:48:13.958Z,100107.92
2019-05-02T08:50:41.045Z,100110.74
2019-05-02T08:53:08.213Z,100111.55
2019-05-02T08:55:35.517Z,100108.78
2019-05-02T08:58:06.584Z,100107.73
2019-05-02T09:00:37.327Z,100100.95
2019-05-02T09:03:02.622Z,100107.86
2019-05-02T09:05:30.320Z,100108.45
2019-05-02T09:07:57.494Z,100093.61
2019-05-02T09:10:24.604Z,100089.13
2019-05-02T09:12:52.220Z,100094.17
2019-05-02T09:15:19.350Z,100094.75
2019-05-02T09:17:53.076Z,100090.03
2019-05-02T09:20:20.368Z,100079.95
2019-05-02T09:22:46.629Z,100084.94
2019-05-02T09:25:14.598Z,100078.28
2019-05-02T09:27:42.077Z,100073.95
2019-05-02T09:30:11.906Z,100073.77
2019-05-02T09:32:38.919Z,100075.66
2019-05-02T09:35:06.414Z,100070.00
2019-05-02T09:37:33.578Z,100064.03
2019-05-02T09:40:02.203Z,100060.00
2019-05-02T09:42:29.611Z,100060.38
2019-05-02T09:44:57.120Z,100048.83
2019-05-02T09:47:27.263Z,100048.69
2019-05-02T09:50:29.679Z,100052.37
2019-05-02T09:52:52.484Z,100054.16
2019-05-02T09:55:19.911Z,100047.64
2019-05-02T09:57:48.226Z,100040.59
2019-05-02T10:00:36.365Z,100039.27
2019-05-02T10:03:03.582Z,100038.84
2019-05-02T10:05:32.192Z,100033.22
2019-05-02T10:08:03.163Z,100045.47
2019-05-02T10:10:29.325Z,100037.09
2019-05-02T10:12:56.501Z,100037.42
2019-05-02T10:15:23.691Z,100032.55
2019-05-02T10:17:51.940Z,100034.05
2019-05-02T10:20:23.487Z,100027.66
2019-05-02T10:22:48.711Z,100032.08
2019-05-02T10:25:15.903Z,100025.41
2019-05-02T10:27:47.526Z,100015.81
2019-05-02T10:30:15.872Z,100014.02
2019-05-02T10:32:47.191Z,100005.80
2019-05-02T10:35:16.041Z,100005.20
2019-05-02T10:37:43.275Z,99996.28
2019-05-02T10:40:15.456Z,99985.30
2019-05-02T10:42:41.921Z,99989.76
2019-05-02T10:45:12.982Z,99979.35
2019-05-02T10:47:39.763Z,99982.27
2019-05-02T10:50:17.346Z,99979.41
2019-05-02T10:52:45.123Z,99983.03
2019-05-02T10:55:12.925Z,99983.36
2019-05-02T10:57:42.016Z,99980.84
2019-05-02T11:00:12.781Z,99973.31
2019-05-02T11:02:52.476Z,99972.64
2019-05-02T11:05:22.511Z,99967.75
2019-05-02T11:07:52.166Z,99963.09
2019-05-02T11:10:19.009Z,99960.02
2019-05-02T11:13:09.098Z,99952.36
2019-05-02T11:16:05.233Z,99949.23
2019-05-02T11:18:47.975Z,99948.61
2019-05-02T11:21:15.147Z,99948.80
2019-05-02T11:23:42.392Z,99941.55
2019-05-02T11:26:14.490Z,99942.52
2019-05-02T11:28:39.076Z,99929.58
2019-05-02T11:31:07.534Z,99930.56
2019-05-02T11:33:35.366Z,99930.98
2019-05-02T11:36:02.666Z,99919.59
2019-05-02T11:38:30.457Z,99917.07
2019-05-02T11:40:57.881Z,99913.77
2019-05-02T11:43:25.104Z,99911.73
2019-05-02T11:45:55.797Z,99912.56
2019-05-02T11:48:22.626Z,99906.37
2019-05-02T11:50:52.105Z,99911.34
2019-05-02T11:53:29.388Z,99909.53
2019-05-02T11:55:48.107Z,99909.16
2019-05-02T11:58:15.309Z,99912.30
2019-05-02T12:00:48.041Z,99912.79
2019-05-02T12:03:36.839Z,99908.01
2019-05-02T12:06:06.692Z,99914.21
2019-05-02T12:08:33.252Z,99913.59
2019-05-02T12:11:01.970Z,99912.98
2019-05-02T12:13:29.868Z,99902.69
2019-05-02T12:15:57.110Z,99908.20
2019-05-02T12:18:24.335Z,99914.14
2019-05-02T12:20:52.158Z,99913.87
2019-05-02T12:23:19.440Z,99907.23
2019-05-02T12:25:46.660Z,99911.89
2019-05-02T12:28:13.968Z,99905.77
2019-05-02T12:30:41.852Z,99905.52
2019-05-02T12:33:09.538Z,99897.67
2019-05-02T12:35:36.976Z,99898.73
2019-05-02T12:38:04.271Z,99902.77
2019-05-02T12:40:32.568Z,99902.39
2019-05-02T12:42:59.821Z,99896.05
2019-05-02T12:45:27.354Z,99886.91
2019-05-02T12:47:54.470Z,99893.05
2019-05-02T12:50:22.580Z,99888.07
2019-05-02T12:52:52.054Z,99888.36
2019-05-02T12:55:19.484Z,99882.13
2019-05-02T12:57:46.692Z,99889.59
2019-05-02T13:00:14.999Z,99883.70
2019-05-02T13:02:47.663Z,99888.09
2019-05-02T13:05:14.717Z,99883.58
2019-05-02T13:07:42.790Z,99875.81
2019-05-02T13:10:13.241Z,99873.77
2019-05-02T13:12:41.923Z,99881.53
2019-05-02T13:15:09.326Z,99869.40
2019-05-02T13:17:43.871Z,99871.46
2019-05-02T13:20:08.604Z,99866.17
2019-05-02T13:22:45.819Z,99862.89
2019-05-02T13:25:15.223Z,99865.48
2019-05-02T13:27:47.085Z,99864.36
2019-05-02T13:30:22.975Z,99855.52
2019-05-02T13:32:57.597Z,99851.54
2019-05-02T13:35:34.236Z,99856.84
2019-05-02T13:38:03.411Z,99847.63
2019-05-02T13:40:41.653Z,99849.74
2019-05-02T13:43:08.999Z,99846.63
2019-05-02T13:45:55.035Z,99844.48
2019-05-02T13:48:22.464Z,99843.74
2019-05-02T13:50:49.535Z,99833.80
2019-05-02T13:53:16.764Z,99831.97
2019-05-02T13:55:50.024Z,99831.83
2019-05-02T13:58:21.637Z,99826.23
2019-05-02T14:00:47.776Z,99821.28
2019-05-02T14:03:15.061Z,99819.98
2019-05-02T14:05:50.715Z,99826.52
2019-05-02T14:08:37.118Z,99816.19
2019-05-02T14:11:22.443Z,99811.94
2019-05-02T14:13:49.811Z,99800.91
2019-05-02T14:16:17.304Z,99800.28
2019-05-02T14:18:44.480Z,99797.13
2019-05-02T14:21:12.631Z,99790.61
2019-05-02T14:23:41.897Z,99785.89
2019-05-02T14:26:09.195Z,99787.72
2019-05-02T14:28:36.535Z,99785.05
2019-05-02T14:31:04.076Z,99790.40
2019-05-02T14:33:33.174Z,99785.84
2019-05-02T14:36:01.792Z,99783.59
2019-05-02T14:38:29.220Z,99780.66
2019-05-02T14:41:16.067Z,99780.58
2019-05-02T14:44:09.041Z,99769.08
2019-05-02T14:46:39.371Z,99760.88
2019-05-02T14:49:05.354Z,99763.81
2019-05-02T14:51:34.822Z,99756.00
2019-05-02T14:54:07.956Z,99761.72
2019-05-02T14:56:45.919Z,99752.05
2019-05-02T14:59:09.260Z,99751.67
2019-05-02T15:01:35.922Z,99757.37
2019-05-02T15:04:08.109Z,99757.45
2019-05-02T15:06:33.691Z,99751.58
2019-05-02T15:09:02.399Z,99752.82
2019-05-02T15:11:32.730Z,99751.28
2019-05-02T15:13:59.709Z,99754.82
2019-05-02T15:16:39.683Z,99746.77
2019-05-02T15:18:57.154Z,99748.45
2019-05-02T15:21:27.412Z,99737.61
2019-05-02T15:23:57.880Z,99737.06
2019-05-02T15:26:26.470Z,99732.66
2019-05-02T15:28:53.172Z,99731.36
2019-05-02T15:31:31.659Z,99730.80
2019-05-02T15:34:14.024Z,99730.95
2019-05-02T15:36:42.263Z,99730.66
2019-05-02T15:41:44.745Z,99724.52
2019-05-02T15:44:09.728Z,99721.33
2019-05-02T15:46:36.960Z,99723.33
2019-05-02T15:49:05.845Z,99729.94
2019-05-02T15:51:33.199Z,99728.61
2019-05-02T15:54:08.126Z,99725.02
2019-05-02T15:56:32.439Z,99725.61
2019-05-02T15:59:03.403Z,99722.61
2019-05-02T16:01:53.234Z,99723.30
2019-05-02T16:04:25.627Z,99716.39
2019-05-02T16:06:52.877Z,99720.11
2019-05-02T16:09:21.629Z,99717.40
2019-05-02T16:11:53.158Z,99713.27
2019-05-02T16:14:18.427Z,99712.31
2019-05-02T16:16:45.690Z,99709.72
2019-05-02T16:19:14.701Z,99711.05
2019-05-02T16:24:32.095Z,99704.05
2019-05-02T16:27:11.678Z,99701.75
2019-05-02T16:30:07.558Z,99700.25
2019-05-02T16:35:41.988Z,99704.52
2019-05-02T16:41:24.989Z,99699.29
2019-05-02T16:44:32.995Z,99701.11
2019-05-02T16:47:14.002Z,99705.28
2019-05-02T16:53:17.260Z,99694.86
2019-05-02T16:58:58.175Z,99691.59
2019-05-02T17:04:33.648Z,99696.22
2019-05-02T17:10:22.976Z,99690.60
2019-05-02T17:12:55.611Z,99693.28
2019-05-02T17:15:45.058Z,99689.94
2019-05-02T17:18:14.641Z,99689.84
2019-05-02T17:20:53.579Z,99689.06
2019-05-02T17:23:26.047Z,99698.34
2019-05-02T17:29:41.513Z,99697.19
2019-05-02T17:32:11.476Z,99705.55
2019-05-02T17:34:45.188Z,99699.70
2019-05-02T17:37:32.539Z,99698.66
2019-05-02T17:43:22.702Z,99708.34
2019-05-02T17:45:57.425Z,99714.47
2019-05-02T17:48:26.429Z,99713.34
2019-05-02T17:51:13.084Z,99725.05
2019-05-02T17:54:22.811Z,99721.95
2019-05-02T18:00:47.378Z,99723.95
2019-05-02T18:03:24.279Z,99715.50
2019-05-02T18:05:56.635Z,99712.50
2019-05-02T18:08:23.733Z,99720.00
2019-05-02T18:11:36.487Z,99726.50
2019-05-02T18:17:29.170Z,99727.16
2019-05-02T18:20:47.545Z,99727.19
2019-05-02T18:23:34.250Z,99730.70
2019-05-02T18:26:04.494Z,99729.38
2019-05-02T18:28:47.032Z,99732.23
2019-05-02T18:31:15.114Z,99731.97
2019-05-02T18:36:43.893Z,99738.17
2019-05-02T18:39:12.883Z,99739.39
2019-05-02T18:41:51.907Z,99739.92
2019-05-02T18:44:28.904Z,99745.94
2019-05-02T18:46:57.758Z,99748.42
2019-05-02T18:49:45.035Z,99747.76
2019-05-02T18:52:12.243Z,99747.91
2019-05-02T18:54:43.988Z,99753.41
2019-05-02T18:57:24.402Z,99751.45
2019-05-02T18:59:59.395Z,99762.28
2019-05-02T19:02:34.082Z,99764.79
2019-05-02T19:14:52.807Z,99771.69
2019-05-02T19:17:21.831Z,99771.41
2019-05-02T19:20:36.850Z,99771.92
2019-05-02T19:23:04.079Z,99769.59
2019-05-02T19:26:15.016Z,99780.58
2019-05-02T19:29:08.517Z,99788.89
2019-05-02T19:31:52.809Z,99792.88
2019-05-02T19:34:22.770Z,99802.39
2019-05-02T19:37:50.451Z,99815.30
2019-05-02T19:43:40.254Z,99832.59
2019-05-02T19:46:53.944Z,99842.72
2019-05-02T19:49:22.109Z,99844.86
2019-05-02T19:52:10.229Z,99848.51
2019-05-02T19:54:39.947Z,99847.83
2019-05-02T19:57:26.898Z,99847.67
2019-05-02T19:59:57.124Z,99861.91
2019-05-02T20:02:43.815Z,99863.56
2019-05-02T20:05:25.523Z,99864.39
2019-05-02T20:08:42.189Z,99875.52
2019-05-02T20:11:32.911Z,99880.02
2019-05-02T20:14:18.136Z,99882.97
2019-05-02T20:22:48.434Z,99887.05
2019-05-02T20:25:56.611Z,99890.16
2019-05-02T20:28:24.085Z,99882.70
2019-05-02T20:30:52.668Z,99886.52
2019-05-02T20:33:27.362Z,99878.92
2019-05-02T20:39:09.077Z,99868.52
2019-05-02T20:41:38.108Z,99872.30
2019-05-02T20:44:17.715Z,99866.59
2019-05-02T20:46:45.008Z,99868.48
2019-05-02T20:49:12.803Z,99870.70
2019-05-02T20:52:02.463Z,99866.98
2019-05-02T20:54:36.582Z,99871.05
2019-05-02T21:00:32.187Z,99863.09
2019-05-02T21:03:25.544Z,99864.75
2019-05-02T21:06:12.509Z,99862.29
2019-05-02T21:14:56.084Z,99871.03
2019-05-02T21:17:23.334Z,99869.66
2019-05-02T21:22:53.009Z,99873.97
2019-05-02T21:25:41.778Z,99877.92
2019-05-02T21:28:32.915Z,99876.86
2019-05-02T21:34:33.670Z,99885.88
2019-05-02T21:37:02.504Z,99894.41
2019-05-02T21:39:36.278Z,99890.95
2019-05-02T21:42:10.478Z,99897.57
2019-05-02T21:44:37.815Z,99906.30
2019-05-02T21:47:05.823Z,99902.63
2019-05-02T21:52:46.605Z,99898.66
2019-05-02T22:07:57.846Z,99909.70
2019-05-02T22:10:25.090Z,99909.70
2019-05-02T22:13:04.423Z,99921.12
2019-05-02T22:15:32.479Z,99916.79
2019-05-02T22:20:47.134Z,99920.33
2019-05-02T22:26:15.409Z,99915.52
2019-05-02T22:28:42.487Z,99920.61
2019-05-02T22:31:12.162Z,99914.66
2019-05-02T22:33:59.007Z,99921.14
2019-05-02T22:36:26.246Z,99922.19
2019-05-02T22:39:36.063Z,99918.36
2019-05-02T22:48:17.897Z,99918.61
2019-05-02T22:53:46.558Z,99922.06
2019-05-02T22:56:25.809Z,99921.86
2019-05-02T23:01:54.224Z,99930.66
2019-05-02T23:04:23.311Z,99927.03
2019-05-02T23:06:56.503Z,99929.80
2019-05-02T23:09:23.696Z,99926.30
2019-05-02T23:11:53.067Z,99936.36
2019-05-02T23:15:01.999Z,99938.85
2019-05-02T23:17:52.170Z,99935.50
2019-05-02T23:21:21.753Z,99943.63
2019-05-02T23:27:11.678Z,99952.83
2019-05-02T23:29:46.415Z,99952.48
2019-05-02T23:35:18.749Z,99950.76
2019-05-02T23:37:45.966Z,99957.92
2019-05-02T23:43:14.628Z,99956.40
2019-05-02T23:45:42.303Z,99957.31
2019-05-02T23:49:02.174Z,99965.72
2019-05-02T23:51:42.619Z,99964.17
2019-05-02T23:54:16.202Z,99959.53
2019-05-02T23:56:43.423Z,99959.03
2019-05-02T23:59:12.457Z,99957.67
